sensor_id;sensor_type;location;lat;lon;timestamp;P1;durP1;ratioP1;P2;durP2;ratioP2
56297;SDS011;42208;6.376;-10.782;2023-09-19T00:00:49;24.30;;;8.23;;
56297;SDS011;42208;6.376;-10.782;2023-09-19T00:03:17;15.32;;;6.25;;
56297;SDS011;42208;6.376;-10.782;2023-09-19T00:05:47;19.67;;;8.00;;
56297;SDS011;42208;6.376;-10.782;2023-09-19T00:08:15;16.15;;;7.75;;
56297;SDS011;42208;6.376;-10.782;2023-09-19T00:10:44;16.70;;;8.15;;
56297;SDS011;42208;6.376;-10.782;2023-09-19T00:13:12;16.85;;;8.05;;
56297;SDS011;42208;6.376;-10.782;2023-09-19T00:15:43;14.82;;;8.13;;
56297;SDS011;42208;6.376;-10.782;2023-09-19T00:18:13;13.00;;;7.00;;
56297;SDS011;42208;6.376;-10.782;2023-09-19T00:20:43;17.33;;;6.97;;
56297;SDS011;42208;6.376;-10.782;2023-09-19T00:23:12;17.67;;;6.95;;
56297;SDS011;42208;6.376;-10.782;2023-09-19T00:25:40;10.98;;;4.43;;
56297;SDS011;42208;6.376;-10.782;2023-09-19T00:28:09;12.07;;;4.00;;
56297;SDS011;42208;6.376;-10.782;2023-09-19T00:30:38;11.55;;;3.92;;
56297;SDS011;42208;6.376;-10.782;2023-09-19T00:33:07;10.77;;;3.78;;
56297;SDS011;42208;6.376;-10.782;2023-09-19T00:35:36;11.95;;;3.38;;
56297;SDS011;42208;6.376;-10.782;2023-09-19T00:38:05;11.82;;;3.70;;
56297;SDS011;42208;6.376;-10.782;2023-09-19T00:40:33;11.25;;;3.75;;
56297;SDS011;42208;6.376;-10.782;2023-09-19T00:43:02;14.45;;;3.40;;
56297;SDS011;42208;6.376;-10.782;2023-09-19T00:45:31;11.10;;;3.58;;
56297;SDS011;42208;6.376;-10.782;2023-09-19T00:48:00;15.52;;;3.45;;
56297;SDS011;42208;6.376;-10.782;2023-09-19T00:50:30;13.73;;;3.45;;
56297;SDS011;42208;6.376;-10.782;2023-09-19T00:52:59;14.18;;;3.17;;
56297;SDS011;42208;6.376;-10.782;2023-09-19T00:55:28;7.03;;;2.80;;
56297;SDS011;42208;6.376;-10.782;2023-09-19T00:57:58;12.02;;;2.80;;
56297;SDS011;42208;6.376;-10.782;2023-09-19T01:00:26;5.53;;;2.60;;
56297;SDS011;42208;6.376;-10.782;2023-09-19T01:02:56;11.05;;;2.70;;
56297;SDS011;42208;6.376;-10.782;2023-09-19T01:05:25;12.23;;;4.82;;
56297;SDS011;42208;6.376;-10.782;2023-09-19T01:07:53;16.52;;;6.38;;
56297;SDS011;42208;6.376;-10.782;2023-09-19T01:10:22;15.40;;;6.47;;
56297;SDS011;42208;6.376;-10.782;2023-09-19T01:30:14;12.98;;;4.75;;
56297;SDS011;42208;6.376;-10.782;2023-09-19T01:32:49;19.40;;;5.18;;
56297;SDS011;42208;6.376;-10.782;2023-09-19T01:35:18;15.67;;;4.30;;
56297;SDS011;42208;6.376;-10.782;2023-09-19T01:37:47;13.00;;;4.28;;
56297;SDS011;42208;6.376;-10.782;2023-09-19T01:40:16;16.08;;;4.63;;
56297;SDS011;42208;6.376;-10.782;2023-09-19T01:45:33;14.77;;;4.20;;
56297;SDS011;42208;6.376;-10.782;2023-09-19T01:51:03;14.43;;;3.85;;
56297;SDS011;42208;6.376;-10.782;2023-09-19T01:59:31;21.45;;;5.18;;
56297;SDS011;42208;6.376;-10.782;2023-09-19T02:02:05;12.52;;;4.10;;
56297;SDS011;42208;6.376;-10.782;2023-09-19T02:04:35;13.45;;;4.03;;
56297;SDS011;42208;6.376;-10.782;2023-09-19T02:07:03;15.20;;;4.47;;
56297;SDS011;42208;6.376;-10.782;2023-09-19T02:09:32;14.23;;;4.65;;
56297;SDS011;42208;6.376;-10.782;2023-09-19T02:12:01;13.48;;;4.50;;
56297;SDS011;42208;6.376;-10.782;2023-09-19T02:14:31;15.23;;;4.50;;
56297;SDS011;42208;6.376;-10.782;2023-09-19T02:16:59;20.48;;;5.05;;
56297;SDS011;42208;6.376;-10.782;2023-09-19T02:19:28;10.75;;;3.33;;
56297;SDS011;42208;6.376;-10.782;2023-09-19T02:21:56;10.50;;;3.47;;
56297;SDS011;42208;6.376;-10.782;2023-09-19T02:24:25;16.23;;;3.80;;
56297;SDS011;42208;6.376;-10.782;2023-09-19T02:26:54;16.95;;;5.40;;
56297;SDS011;42208;6.376;-10.782;2023-09-19T02:29:24;22.75;;;6.70;;
56297;SDS011;42208;6.376;-10.782;2023-09-19T02:31:52;10.98;;;4.70;;
56297;SDS011;42208;6.376;-10.782;2023-09-19T02:34:21;15.65;;;5.00;;
56297;SDS011;42208;6.376;-10.782;2023-09-19T02:36:50;18.55;;;8.35;;
56297;SDS011;42208;6.376;-10.782;2023-09-19T02:39:18;19.55;;;5.70;;
56297;SDS011;42208;6.376;-10.782;2023-09-19T02:41:47;19.65;;;6.82;;
56297;SDS011;42208;6.376;-10.782;2023-09-19T02:44:15;26.27;;;11.73;;
56297;SDS011;42208;6.376;-10.782;2023-09-19T02:46:44;27.25;;;9.32;;
56297;SDS011;42208;6.376;-10.782;2023-09-19T02:49:13;15.40;;;6.63;;
56297;SDS011;42208;6.376;-10.782;2023-09-19T02:51:42;20.48;;;8.20;;
56297;SDS011;42208;6.376;-10.782;2023-09-19T02:54:11;33.90;;;15.60;;
56297;SDS011;42208;6.376;-10.782;2023-09-19T02:56:39;62.47;;;32.67;;
56297;SDS011;42208;6.376;-10.782;2023-09-19T02:59:08;38.63;;;16.33;;
56297;SDS011;42208;6.376;-10.782;2023-09-19T03:01:36;18.33;;;7.72;;
56297;SDS011;42208;6.376;-10.782;2023-09-19T03:04:05;32.30;;;14.63;;
56297;SDS011;42208;6.376;-10.782;2023-09-19T03:06:34;28.25;;;9.57;;
56297;SDS011;42208;6.376;-10.782;2023-09-19T03:09:03;14.82;;;7.50;;
56297;SDS011;42208;6.376;-10.782;2023-09-19T03:11:32;17.35;;;5.75;;
56297;SDS011;42208;6.376;-10.782;2023-09-19T03:14:00;10.38;;;3.60;;
56297;SDS011;42208;6.376;-10.782;2023-09-19T03:16:29;8.50;;;3.13;;
56297;SDS011;42208;6.376;-10.782;2023-09-19T03:18:59;14.05;;;4.93;;
56297;SDS011;42208;6.376;-10.782;2023-09-19T03:21:30;40.08;;;18.50;;
56297;SDS011;42208;6.376;-10.782;2023-09-19T03:23:59;30.92;;;15.68;;
56297;SDS011;42208;6.376;-10.782;2023-09-19T03:26:28;49.95;;;21.08;;
56297;SDS011;42208;6.376;-10.782;2023-09-19T03:28:56;34.30;;;18.13;;
56297;SDS011;42208;6.376;-10.782;2023-09-19T03:31:25;28.25;;;13.82;;
56297;SDS011;42208;6.376;-10.782;2023-09-19T03:33:54;19.65;;;9.88;;
56297;SDS011;42208;6.376;-10.782;2023-09-19T03:36:22;17.20;;;6.55;;
56297;SDS011;42208;6.376;-10.782;2023-09-19T03:38:50;13.07;;;4.28;;
56297;SDS011;42208;6.376;-10.782;2023-09-19T03:41:19;8.15;;;3.70;;
56297;SDS011;42208;6.376;-10.782;2023-09-19T03:43:48;13.25;;;3.38;;
56297;SDS011;42208;6.376;-10.782;2023-09-19T03:46:16;11.98;;;3.20;;
56297;SDS011;42208;6.376;-10.782;2023-09-19T03:48:46;12.68;;;3.58;;
56297;SDS011;42208;6.376;-10.782;2023-09-19T03:51:14;9.13;;;3.88;;
56297;SDS011;42208;6.376;-10.782;2023-09-19T03:53:43;12.43;;;3.65;;
56297;SDS011;42208;6.376;-10.782;2023-09-19T03:56:11;11.32;;;3.50;;
56297;SDS011;42208;6.376;-10.782;2023-09-19T03:58:40;9.48;;;3.80;;
56297;SDS011;42208;6.376;-10.782;2023-09-19T04:01:08;10.82;;;4.78;;
56297;SDS011;42208;6.376;-10.782;2023-09-19T04:03:37;11.50;;;5.35;;
56297;SDS011;42208;6.376;-10.782;2023-09-19T04:06:06;16.52;;;5.65;;
56297;SDS011;42208;6.376;-10.782;2023-09-19T04:08:34;12.52;;;5.47;;
56297;SDS011;42208;6.376;-10.782;2023-09-19T04:11:02;17.48;;;6.53;;
56297;SDS011;42208;6.376;-10.782;2023-09-19T04:13:31;9.93;;;5.32;;
56297;SDS011;42208;6.376;-10.782;2023-09-19T04:15:59;14.13;;;6.82;;
56297;SDS011;42208;6.376;-10.782;2023-09-19T04:18:28;11.82;;;5.82;;
56297;SDS011;42208;6.376;-10.782;2023-09-19T04:20:57;14.75;;;5.97;;
56297;SDS011;42208;6.376;-10.782;2023-09-19T04:23:26;16.52;;;6.18;;
56297;SDS011;42208;6.376;-10.782;2023-09-19T04:25:54;19.10;;;8.25;;
56297;SDS011;42208;6.376;-10.782;2023-09-19T04:28:23;16.23;;;4.90;;
56297;SDS011;42208;6.376;-10.782;2023-09-19T04:30:51;18.67;;;5.95;;
56297;SDS011;42208;6.376;-10.782;2023-09-19T04:33:20;15.13;;;7.13;;
56297;SDS011;42208;6.376;-10.782;2023-09-19T04:35:49;10.40;;;5.50;;
56297;SDS011;42208;6.376;-10.782;2023-09-19T04:38:18;12.38;;;4.95;;
56297;SDS011;42208;6.376;-10.782;2023-09-19T04:40:47;16.30;;;3.58;;
56297;SDS011;42208;6.376;-10.782;2023-09-19T04:43:15;11.70;;;3.00;;
56297;SDS011;42208;6.376;-10.782;2023-09-19T04:45:44;9.95;;;2.33;;
56297;SDS011;42208;6.376;-10.782;2023-09-19T04:48:12;11.68;;;3.33;;
56297;SDS011;42208;6.376;-10.782;2023-09-19T04:50:41;12.63;;;2.88;;
56297;SDS011;42208;6.376;-10.782;2023-09-19T04:53:09;6.93;;;2.67;;
56297;SDS011;42208;6.376;-10.782;2023-09-19T04:55:38;10.18;;;2.75;;
56297;SDS011;42208;6.376;-10.782;2023-09-19T04:58:06;8.80;;;2.40;;
56297;SDS011;42208;6.376;-10.782;2023-09-19T05:00:35;5.13;;;2.38;;
56297;SDS011;42208;6.376;-10.782;2023-09-19T05:03:03;7.45;;;2.30;;
56297;SDS011;42208;6.376;-10.782;2023-09-19T05:05:32;8.60;;;4.18;;
56297;SDS011;42208;6.376;-10.782;2023-09-19T05:08:00;16.13;;;4.82;;
56297;SDS011;42208;6.376;-10.782;2023-09-19T05:10:32;6.60;;;3.05;;
56297;SDS011;42208;6.376;-10.782;2023-09-19T05:13:01;7.93;;;3.03;;
56297;SDS011;42208;6.376;-10.782;2023-09-19T05:15:30;9.95;;;3.13;;
56297;SDS011;42208;6.376;-10.782;2023-09-19T05:17:58;7.28;;;2.80;;
56297;SDS011;42208;6.376;-10.782;2023-09-19T05:20:27;19.10;;;4.38;;
56297;SDS011;42208;6.376;-10.782;2023-09-19T05:22:59;9.90;;;3.70;;
56297;SDS011;42208;6.376;-10.782;2023-09-19T05:25:28;9.32;;;3.25;;
56297;SDS011;42208;6.376;-10.782;2023-09-19T05:27:59;8.90;;;3.53;;
56297;SDS011;42208;6.376;-10.782;2023-09-19T05:30:28;11.07;;;3.40;;
56297;SDS011;42208;6.376;-10.782;2023-09-19T05:32:56;6.78;;;3.08;;
56297;SDS011;42208;6.376;-10.782;2023-09-19T05:35:25;8.20;;;4.03;;
56297;SDS011;42208;6.376;-10.782;2023-09-19T05:37:54;13.55;;;3.70;;
56297;SDS011;42208;6.376;-10.782;2023-09-19T05:40:23;9.52;;;3.53;;
56297;SDS011;42208;6.376;-10.782;2023-09-19T05:42:52;13.80;;;4.45;;
56297;SDS011;42208;6.376;-10.782;2023-09-19T05:45:21;19.20;;;4.47;;
56297;SDS011;42208;6.376;-10.782;2023-09-19T05:47:50;12.23;;;3.90;;
56297;SDS011;42208;6.376;-10.782;2023-09-19T05:50:19;8.50;;;4.07;;
56297;SDS011;42208;6.376;-10.782;2023-09-19T05:52:53;11.48;;;4.32;;
56297;SDS011;42208;6.376;-10.782;2023-09-19T05:55:22;8.32;;;4.15;;
56297;SDS011;42208;6.376;-10.782;2023-09-19T05:57:51;11.68;;;4.15;;
56297;SDS011;42208;6.376;-10.782;2023-09-19T06:00:20;11.88;;;6.53;;
56297;SDS011;42208;6.376;-10.782;2023-09-19T06:02:53;19.52;;;6.72;;
56297;SDS011;42208;6.376;-10.782;2023-09-19T06:05:23;11.27;;;6.68;;
56297;SDS011;42208;6.376;-10.782;2023-09-19T06:07:52;11.30;;;7.25;;
56297;SDS011;42208;6.376;-10.782;2023-09-19T06:10:21;15.88;;;8.45;;
56297;SDS011;42208;6.376;-10.782;2023-09-19T06:12:50;21.50;;;7.78;;
56297;SDS011;42208;6.376;-10.782;2023-09-19T06:15:19;11.82;;;6.85;;
56297;SDS011;42208;6.376;-10.782;2023-09-19T06:17:48;17.27;;;7.07;;
56297;SDS011;42208;6.376;-10.782;2023-09-19T06:20:17;10.48;;;6.43;;
56297;SDS011;42208;6.376;-10.782;2023-09-19T06:22:46;11.90;;;7.15;;
56297;SDS011;42208;6.376;-10.782;2023-09-19T06:25:15;13.68;;;9.73;;
56297;SDS011;42208;6.376;-10.782;2023-09-19T06:27:47;15.80;;;8.82;;
56297;SDS011;42208;6.376;-10.782;2023-09-19T06:30:17;12.43;;;8.20;;
56297;SDS011;42208;6.376;-10.782;2023-09-19T06:32:46;18.80;;;8.45;;
56297;SDS011;42208;6.376;-10.782;2023-09-19T06:35:15;14.70;;;7.53;;
56297;SDS011;42208;6.376;-10.782;2023-09-19T06:37:44;7.63;;;3.30;;
56297;SDS011;42208;6.376;-10.782;2023-09-19T06:40:13;4.70;;;1.90;;
56297;SDS011;42208;6.376;-10.782;2023-09-19T06:42:52;7.70;;;2.42;;
56297;SDS011;42208;6.376;-10.782;2023-09-19T06:45:21;5.00;;;2.08;;
56297;SDS011;42208;6.376;-10.782;2023-09-19T06:47:50;9.88;;;3.83;;
56297;SDS011;42208;6.376;-10.782;2023-09-19T06:50:20;7.55;;;5.13;;
56297;SDS011;42208;6.376;-10.782;2023-09-19T06:52:50;6.15;;;2.70;;
56297;SDS011;42208;6.376;-10.782;2023-09-19T06:55:20;6.10;;;2.50;;
56297;SDS011;42208;6.376;-10.782;2023-09-19T06:57:49;11.23;;;3.45;;
56297;SDS011;42208;6.376;-10.782;2023-09-19T07:00:17;9.55;;;4.68;;
56297;SDS011;42208;6.376;-10.782;2023-09-19T07:03:07;7.60;;;4.00;;
56297;SDS011;42208;6.376;-10.782;2023-09-19T07:05:36;18.23;;;4.68;;
56297;SDS011;42208;6.376;-10.782;2023-09-19T07:08:07;11.90;;;6.25;;
56297;SDS011;42208;6.376;-10.782;2023-09-19T07:10:37;6.80;;;3.67;;
56297;SDS011;42208;6.376;-10.782;2023-09-19T07:13:07;10.70;;;3.80;;
56297;SDS011;42208;6.376;-10.782;2023-09-19T07:15:36;11.93;;;6.15;;
56297;SDS011;42208;6.376;-10.782;2023-09-19T07:18:06;5.22;;;2.22;;
56297;SDS011;42208;6.376;-10.782;2023-09-19T07:20:35;2.72;;;2.13;;
56297;SDS011;42208;6.376;-10.782;2023-09-19T07:23:05;4.78;;;2.78;;
56297;SDS011;42208;6.376;-10.782;2023-09-19T07:25:35;5.53;;;3.55;;
56297;SDS011;42208;6.376;-10.782;2023-09-19T07:28:04;9.52;;;4.90;;
56297;SDS011;42208;6.376;-10.782;2023-09-19T07:30:35;7.88;;;4.15;;
56297;SDS011;42208;6.376;-10.782;2023-09-19T07:35:33;4.20;;;2.50;;
56297;SDS011;42208;6.376;-10.782;2023-09-19T07:38:01;3.45;;;2.15;;
56297;SDS011;42208;6.376;-10.782;2023-09-19T07:40:30;5.53;;;2.28;;
56297;SDS011;42208;6.376;-10.782;2023-09-19T07:42:58;6.40;;;2.03;;
56297;SDS011;42208;6.376;-10.782;2023-09-19T07:45:30;4.00;;;1.83;;
56297;SDS011;42208;6.376;-10.782;2023-09-19T07:50:30;9.55;;;2.53;;
56297;SDS011;42208;6.376;-10.782;2023-09-19T07:53:01;9.93;;;3.05;;
56297;SDS011;42208;6.376;-10.782;2023-09-19T07:55:30;11.02;;;7.35;;
56297;SDS011;42208;6.376;-10.782;2023-09-19T07:57:58;9.05;;;5.70;;
56297;SDS011;42208;6.376;-10.782;2023-09-19T08:00:27;10.00;;;6.72;;
56297;SDS011;42208;6.376;-10.782;2023-09-19T08:02:56;10.75;;;5.40;;
56297;SDS011;42208;6.376;-10.782;2023-09-19T08:05:49;16.45;;;7.95;;
56297;SDS011;42208;6.376;-10.782;2023-09-19T08:08:30;17.77;;;11.07;;
56297;SDS011;42208;6.376;-10.782;2023-09-19T08:11:26;7.00;;;3.53;;
56297;SDS011;42208;6.376;-10.782;2023-09-19T08:13:54;5.95;;;2.20;;
56297;SDS011;42208;6.376;-10.782;2023-09-19T08:16:23;7.25;;;4.57;;
56297;SDS011;42208;6.376;-10.782;2023-09-19T08:18:52;10.38;;;3.38;;
56297;SDS011;42208;6.376;-10.782;2023-09-19T08:21:23;10.35;;;3.17;;
56297;SDS011;42208;6.376;-10.782;2023-09-19T08:23:52;8.00;;;2.80;;
56297;SDS011;42208;6.376;-10.782;2023-09-19T08:26:20;4.93;;;2.33;;
56297;SDS011;42208;6.376;-10.782;2023-09-19T08:28:49;4.53;;;2.75;;
56297;SDS011;42208;6.376;-10.782;2023-09-19T08:31:18;12.43;;;5.03;;
56297;SDS011;42208;6.376;-10.782;2023-09-19T08:33:47;7.93;;;4.55;;
56297;SDS011;42208;6.376;-10.782;2023-09-19T08:36:16;17.70;;;4.38;;
56297;SDS011;42208;6.376;-10.782;2023-09-19T08:38:44;9.10;;;2.47;;
56297;SDS011;42208;6.376;-10.782;2023-09-19T08:44:00;15.52;;;7.72;;
56297;SDS011;42208;6.376;-10.782;2023-09-19T08:46:30;13.48;;;7.80;;
56297;SDS011;42208;6.376;-10.782;2023-09-19T08:49:05;9.32;;;4.15;;
56297;SDS011;42208;6.376;-10.782;2023-09-19T08:51:46;5.47;;;3.15;;
56297;SDS011;42208;6.376;-10.782;2023-09-19T08:54:28;8.60;;;2.80;;
56297;SDS011;42208;6.376;-10.782;2023-09-19T08:57:05;6.45;;;2.30;;
56297;SDS011;42208;6.376;-10.782;2023-09-19T08:59:35;8.95;;;2.75;;
56297;SDS011;42208;6.376;-10.782;2023-09-19T09:02:12;5.90;;;3.35;;
56297;SDS011;42208;6.376;-10.782;2023-09-19T09:04:42;4.43;;;2.67;;
56297;SDS011;42208;6.376;-10.782;2023-09-19T09:07:13;5.85;;;3.58;;
56297;SDS011;42208;6.376;-10.782;2023-09-19T09:09:45;5.63;;;2.72;;
56297;SDS011;42208;6.376;-10.782;2023-09-19T09:12:15;5.50;;;2.17;;
56297;SDS011;42208;6.376;-10.782;2023-09-19T09:14:44;5.80;;;2.65;;
56297;SDS011;42208;6.376;-10.782;2023-09-19T09:17:14;9.13;;;3.20;;
56297;SDS011;42208;6.376;-10.782;2023-09-19T09:19:44;7.65;;;3.83;;
56297;SDS011;42208;6.376;-10.782;2023-09-19T09:22:14;8.20;;;3.92;;
56297;SDS011;42208;6.376;-10.782;2023-09-19T09:24:52;5.47;;;3.05;;
56297;SDS011;42208;6.376;-10.782;2023-09-19T09:27:22;6.22;;;3.60;;
56297;SDS011;42208;6.376;-10.782;2023-09-19T09:30:01;10.65;;;3.95;;
56297;SDS011;42208;6.376;-10.782;2023-09-19T09:32:30;6.72;;;2.80;;
56297;SDS011;42208;6.376;-10.782;2023-09-19T09:35:00;8.57;;;3.05;;
56297;SDS011;42208;6.376;-10.782;2023-09-19T09:37:31;7.82;;;3.33;;
56297;SDS011;42208;6.376;-10.782;2023-09-19T09:40:09;3.30;;;2.38;;
56297;SDS011;42208;6.376;-10.782;2023-09-19T09:42:41;0.30;;;0.30;;
56297;SDS011;42208;6.376;-10.782;2023-09-19T09:46:05;0.20;;;0.20;;
56297;SDS011;42208;6.376;-10.782;2023-09-19T09:48:41;0.30;;;0.30;;
56297;SDS011;42208;6.376;-10.782;2023-09-19T09:51:10;0.20;;;0.20;;
56297;SDS011;42208;6.376;-10.782;2023-09-19T09:53:39;0.20;;;0.20;;
56297;SDS011;42208;6.376;-10.782;2023-09-19T09:56:08;0.20;;;0.20;;
56297;SDS011;42208;6.376;-10.782;2023-09-19T09:58:57;0.20;;;0.20;;
56297;SDS011;42208;6.376;-10.782;2023-09-19T10:01:26;0.20;;;0.20;;
56297;SDS011;42208;6.376;-10.782;2023-09-19T10:03:57;0.10;;;0.10;;
56297;SDS011;42208;6.376;-10.782;2023-09-19T10:06:40;0.20;;;0.20;;
56297;SDS011;42208;6.376;-10.782;2023-09-19T10:09:10;4.07;;;2.78;;
56297;SDS011;42208;6.376;-10.782;2023-09-19T10:11:47;0.30;;;0.30;;
56297;SDS011;42208;6.376;-10.782;2023-09-19T10:14:54;0.65;;;0.40;;
56297;SDS011;42208;6.376;-10.782;2023-09-19T10:17:28;0.15;;;0.15;;
56297;SDS011;42208;6.376;-10.782;2023-09-19T10:19:59;0.20;;;0.20;;
56297;SDS011;42208;6.376;-10.782;2023-09-19T10:22:31;0.20;;;0.20;;
56297;SDS011;42208;6.376;-10.782;2023-09-19T10:25:02;0.20;;;0.20;;
56297;SDS011;42208;6.376;-10.782;2023-09-19T10:27:33;0.17;;;0.17;;
56297;SDS011;42208;6.376;-10.782;2023-09-19T10:30:04;0.20;;;0.20;;
56297;SDS011;42208;6.376;-10.782;2023-09-19T10:32:35;0.30;;;0.30;;
56297;SDS011;42208;6.376;-10.782;2023-09-19T10:35:07;0.20;;;0.20;;
56297;SDS011;42208;6.376;-10.782;2023-09-19T10:37:39;0.20;;;0.20;;
56297;SDS011;42208;6.376;-10.782;2023-09-19T10:40:09;0.10;;;0.10;;
56297;SDS011;42208;6.376;-10.782;2023-09-19T10:42:40;0.70;;;0.70;;
56297;SDS011;42208;6.376;-10.782;2023-09-19T10:45:10;1.10;;;1.08;;
56297;SDS011;42208;6.376;-10.782;2023-09-19T10:47:40;0.20;;;0.20;;
56297;SDS011;42208;6.376;-10.782;2023-09-19T10:50:12;0.10;;;0.10;;
56297;SDS011;42208;6.376;-10.782;2023-09-19T10:52:49;0.20;;;0.20;;
56297;SDS011;42208;6.376;-10.782;2023-09-19T10:55:19;1.65;;;1.05;;
